createdAt,value
2019-03-31T00:02:19.260Z,64.08
2019-03-31T00:04:49.891Z,64.24
2019-03-31T00:07:20.779Z,63.74
2019-03-31T00:09:51.357Z,63.37
2019-03-31T00:12:22.249Z,63.33
2019-03-31T00:14:53.086Z,63.33
2019-03-31T00:17:23.821Z,63.52
2019-03-31T00:19:54.723Z,63.55
2019-03-31T00:22:25.584Z,63.77
2019-03-31T00:24:56.112Z,63.69
2019-03-31T00:27:27.055Z,63.97
2019-03-31T00:29:57.902Z,64.09
2019-03-31T00:32:28.909Z,63.95
2019-03-31T00:34:59.801Z,64.27
2019-03-31T00:37:30.252Z,64.43
2019-03-31T00:40:01.293Z,64.48
2019-03-31T00:42:32.233Z,64.48
2019-03-31T00:45:03.148Z,64.61
2019-03-31T00:47:34.083Z,64.31
2019-03-31T00:50:07.244Z,64.49
2019-03-31T00:52:38.081Z,63.85
2019-03-31T00:55:09.093Z,64.43
2019-03-31T00:57:39.607Z,64.56
2019-03-31T01:00:13.042Z,64.64
2019-03-31T01:02:44.126Z,64.75
2019-03-31T01:05:14.749Z,64.75
2019-03-31T01:07:45.949Z,64.88
2019-03-31T01:10:16.969Z,65.21
2019-03-31T01:12:47.956Z,65.60
2019-03-31T01:15:23.947Z,65.81
2019-03-31T01:17:55.683Z,65.73
2019-03-31T01:20:26.391Z,65.95
2019-03-31T01:22:57.302Z,65.99
2019-03-31T01:25:28.277Z,66.13
2019-03-31T01:27:59.114Z,66.58
2019-03-31T01:30:30.586Z,66.55
2019-03-31T01:33:01.625Z,66.79
2019-03-31T01:35:32.669Z,66.94
2019-03-31T01:38:06.754Z,66.67
2019-03-31T01:40:37.593Z,67.03
2019-03-31T01:43:08.093Z,67.21
2019-03-31T01:45:38.895Z,67.37
2019-03-31T01:48:09.839Z,67.35
2019-03-31T01:50:40.709Z,67.94
2019-03-31T01:53:11.465Z,67.91
2019-03-31T01:55:42.759Z,68.18
2019-03-31T01:58:13.591Z,68.60
2019-03-31T02:00:46.189Z,68.20
2019-03-31T02:03:16.987Z,68.59
2019-03-31T02:05:47.421Z,68.88
2019-03-31T02:08:18.227Z,68.73
2019-03-31T02:10:48.983Z,68.74
2019-03-31T02:13:19.445Z,68.75
2019-03-31T02:15:50.117Z,69.10
2019-03-31T02:18:20.851Z,69.44
2019-03-31T02:20:54.373Z,69.54
2019-03-31T02:23:25.207Z,69.49
2019-03-31T02:25:55.955Z,69.78
2019-03-31T02:28:26.791Z,69.88
2019-03-31T02:30:57.306Z,70.16
2019-03-31T02:33:31.226Z,70.14
2019-03-31T02:36:02.173Z,70.17
2019-03-31T02:38:33.014Z,70.17
2019-03-31T02:41:03.433Z,70.30
2019-03-31T02:43:34.144Z,70.55
2019-03-31T02:46:05.019Z,70.54
2019-03-31T02:48:35.839Z,70.78
2019-03-31T02:51:06.674Z,70.68
2019-03-31T02:53:37.221Z,70.78
2019-03-31T02:56:08.307Z,71.16
2019-03-31T02:58:39.569Z,71.16
2019-03-31T03:01:10.830Z,71.23
2019-03-31T03:03:42.162Z,71.38
2019-03-31T03:06:15.665Z,71.58
2019-03-31T03:08:49.123Z,71.61
2019-03-31T03:11:21.364Z,71.71
2019-03-31T03:13:53.154Z,71.90
2019-03-31T03:16:24.145Z,71.73
2019-03-31T03:18:54.977Z,71.92
2019-03-31T03:21:26.207Z,72.07
2019-03-31T03:23:57.776Z,72.00
2019-03-31T03:26:28.719Z,72.28
2019-03-31T03:28:59.138Z,72.13
2019-03-31T03:31:33.145Z,72.37
2019-03-31T03:34:03.891Z,72.62
2019-03-31T03:36:34.845Z,72.74
2019-03-31T03:39:07.974Z,72.69
2019-03-31T03:41:38.842Z,72.91
2019-03-31T03:44:09.693Z,72.72
2019-03-31T03:46:40.548Z,73.05
2019-03-31T03:49:11.550Z,73.39
2019-03-31T03:51:42.488Z,73.41
2019-03-31T03:54:13.343Z,73.47
2019-03-31T03:56:44.083Z,73.74
2019-03-31T03:59:14.822Z,73.98
2019-03-31T04:01:45.646Z,74.03
2019-03-31T04:04:16.378Z,74.30
2019-03-31T04:06:47.104Z,74.36
2019-03-31T04:09:17.846Z,74.73
2019-03-31T04:11:48.721Z,74.66
2019-03-31T04:14:19.628Z,74.75
2019-03-31T04:16:50.452Z,74.92
2019-03-31T04:19:21.212Z,75.06
2019-03-31T04:21:52.036Z,75.07
2019-03-31T04:24:22.768Z,75.23
2019-03-31T04:26:53.526Z,75.60
2019-03-31T04:29:23.984Z,75.20
2019-03-31T04:31:54.779Z,75.70
2019-03-31T04:34:25.491Z,75.82
2019-03-31T04:36:56.391Z,75.65
2019-03-31T04:39:26.870Z,75.79
2019-03-31T04:41:57.386Z,75.93
2019-03-31T04:44:28.341Z,75.71
2019-03-31T04:46:59.188Z,75.61
2019-03-31T04:49:30.001Z,76.25
2019-03-31T04:52:02.118Z,76.10
2019-03-31T04:54:33.028Z,76.11
2019-03-31T04:57:04.688Z,76.09
2019-03-31T04:59:35.736Z,76.37
2019-03-31T05:02:06.555Z,76.17
2019-03-31T05:04:37.855Z,75.99
2019-03-31T05:07:08.360Z,76.37
2019-03-31T05:09:39.156Z,76.88
2019-03-31T05:12:10.106Z,76.77
2019-03-31T05:14:40.926Z,76.43
2019-03-31T05:17:11.675Z,76.39
2019-03-31T05:19:42.498Z,76.39
2019-03-31T05:22:13.216Z,75.88
2019-03-31T05:24:43.661Z,76.83
2019-03-31T05:27:14.396Z,77.19
2019-03-31T05:29:45.242Z,77.08
2019-03-31T05:32:16.004Z,76.79
2019-03-31T05:34:46.841Z,77.41
2019-03-31T05:37:17.666Z,78.37
2019-03-31T05:39:48.486Z,77.96
2019-03-31T05:42:19.303Z,77.21
2019-03-31T05:44:50.125Z,77.94
2019-03-31T05:47:21.006Z,78.24
2019-03-31T05:49:51.830Z,78.56
2019-03-31T05:52:22.756Z,78.85
2019-03-31T05:54:53.123Z,77.78
2019-03-31T05:57:23.626Z,78.59
2019-03-31T05:59:54.957Z,77.56
2019-03-31T06:02:25.696Z,78.00
2019-03-31T06:04:56.441Z,77.34
2019-03-31T06:07:27.282Z,77.38
2019-03-31T06:09:58.164Z,77.12
2019-03-31T06:12:28.951Z,76.79
2019-03-31T06:14:59.800Z,77.29
2019-03-31T06:17:30.619Z,76.84
2019-03-31T06:20:01.499Z,76.84
2019-03-31T06:22:32.295Z,77.16
2019-03-31T06:25:03.038Z,77.71
2019-03-31T06:27:33.864Z,77.92
2019-03-31T06:30:07.951Z,77.49
2019-03-31T06:32:38.720Z,78.03
2019-03-31T06:35:09.687Z,77.65
2019-03-31T06:37:42.377Z,77.47
2019-03-31T06:40:13.785Z,77.48
2019-03-31T06:42:47.483Z,76.86
2019-03-31T06:45:18.321Z,77.48
2019-03-31T06:47:49.075Z,76.58
2019-03-31T06:50:19.886Z,76.75
2019-03-31T06:52:50.296Z,76.19
2019-03-31T06:55:21.179Z,76.49
2019-03-31T06:57:52.041Z,76.79
2019-03-31T07:00:22.531Z,76.72
2019-03-31T07:02:53.353Z,76.20
2019-03-31T07:05:24.191Z,75.36
2019-03-31T07:07:56.577Z,75.03
2019-03-31T07:10:27.183Z,75.09
2019-03-31T07:12:59.758Z,74.86
2019-03-31T07:15:31.119Z,74.92
2019-03-31T07:18:02.117Z,74.27
2019-03-31T07:20:32.971Z,74.37
2019-03-31T07:23:03.879Z,74.50
2019-03-31T07:25:37.173Z,74.24
2019-03-31T07:28:09.535Z,74.00
2019-03-31T07:30:40.402Z,73.75
2019-03-31T07:33:11.327Z,73.50
2019-03-31T07:35:42.303Z,73.53
2019-03-31T07:38:14.399Z,73.62
2019-03-31T07:40:46.858Z,72.97
2019-03-31T07:43:18.078Z,73.01
2019-03-31T07:45:48.875Z,72.92
2019-03-31T07:48:19.923Z,72.68
2019-03-31T07:50:50.839Z,71.95
2019-03-31T07:53:21.787Z,72.18
2019-03-31T07:55:52.666Z,72.45
2019-03-31T07:58:23.669Z,72.95
2019-03-31T08:00:54.505Z,72.55
2019-03-31T08:03:25.439Z,71.90
2019-03-31T08:05:56.279Z,72.00
2019-03-31T08:08:28.637Z,71.94
2019-03-31T08:10:59.541Z,72.31
2019-03-31T08:13:30.430Z,71.66
2019-03-31T08:16:03.646Z,71.03
2019-03-31T08:18:33.825Z,71.89
2019-03-31T08:21:06.080Z,70.27
2019-03-31T08:23:36.909Z,70.08
2019-03-31T08:26:07.805Z,70.48
2019-03-31T08:28:38.513Z,69.42
2019-03-31T08:31:09.463Z,69.43
2019-03-31T08:33:40.365Z,69.34
2019-03-31T08:36:11.135Z,68.70
2019-03-31T08:38:41.964Z,69.17
2019-03-31T08:41:14.021Z,69.87
2019-03-31T08:43:44.850Z,69.37
2019-03-31T08:46:15.695Z,69.09
2019-03-31T08:48:46.591Z,68.47
2019-03-31T08:51:17.115Z,68.99
2019-03-31T08:53:47.625Z,68.29
2019-03-31T08:56:18.461Z,68.35
2019-03-31T08:58:49.259Z,68.26
2019-03-31T09:01:21.483Z,68.14
2019-03-31T09:03:52.295Z,67.57
2019-03-31T09:06:25.549Z,68.09
2019-03-31T09:08:56.393Z,67.85
2019-03-31T09:11:27.246Z,67.72
2019-03-31T09:13:58.149Z,68.35
2019-03-31T09:16:28.925Z,68.50
2019-03-31T09:18:59.854Z,69.38
2019-03-31T09:21:30.689Z,69.22
2019-03-31T09:24:01.508Z,69.23
2019-03-31T09:26:32.496Z,70.45
2019-03-31T09:29:03.547Z,70.63
2019-03-31T09:31:34.679Z,70.92
2019-03-31T09:34:05.386Z,71.49
2019-03-31T09:36:36.212Z,72.13
2019-03-31T09:39:07.087Z,71.90
2019-03-31T09:41:37.872Z,71.36
2019-03-31T09:44:08.675Z,71.08
2019-03-31T09:46:39.763Z,68.81
2019-03-31T09:49:10.731Z,68.67
2019-03-31T09:51:41.670Z,69.04
2019-03-31T09:54:12.606Z,68.75
2019-03-31T09:56:43.530Z,69.50
2019-03-31T09:59:14.466Z,69.40
2019-03-31T10:01:45.438Z,69.01
2019-03-31T10:04:16.268Z,68.67
2019-03-31T10:06:47.369Z,68.87
2019-03-31T10:09:18.267Z,69.30
2019-03-31T10:11:49.079Z,69.36
2019-03-31T10:14:19.568Z,68.51
2019-03-31T10:16:50.233Z,68.84
2019-03-31T10:19:21.122Z,68.20
2019-03-31T10:21:51.916Z,68.27
2019-03-31T10:24:22.866Z,66.69
2019-03-31T10:26:53.362Z,67.42
2019-03-31T10:29:24.307Z,65.75
2019-03-31T10:31:55.046Z,65.41
2019-03-31T10:34:25.870Z,64.26
2019-03-31T10:36:56.360Z,64.93
2019-03-31T10:39:27.134Z,64.92
2019-03-31T10:41:57.984Z,65.23
2019-03-31T10:44:29.726Z,65.17
2019-03-31T10:47:00.691Z,64.00
2019-03-31T10:49:31.414Z,64.33
2019-03-31T10:52:02.254Z,64.34
2019-03-31T10:54:33.074Z,64.65
2019-03-31T10:57:04.076Z,62.34
2019-03-31T10:59:35.830Z,60.92
2019-03-31T11:02:06.822Z,60.70
2019-03-31T11:04:38.008Z,59.36
2019-03-31T11:07:08.912Z,58.46
2019-03-31T11:09:39.360Z,58.16
2019-03-31T11:12:10.158Z,58.03
2019-03-31T11:14:40.888Z,58.17
2019-03-31T11:17:11.634Z,57.98
2019-03-31T11:19:42.377Z,58.91
2019-03-31T11:22:17.192Z,58.61
2019-03-31T11:24:49.138Z,58.21
2019-03-31T11:27:19.888Z,57.40
2019-03-31T11:29:50.709Z,55.51
2019-03-31T11:32:22.393Z,55.47
2019-03-31T11:34:53.237Z,54.63
2019-03-31T11:37:24.051Z,53.34
2019-03-31T11:39:54.820Z,52.51
2019-03-31T11:42:25.518Z,52.24
2019-03-31T11:44:56.366Z,52.39
2019-03-31T11:47:26.894Z,52.21
2019-03-31T11:49:57.719Z,50.35
2019-03-31T11:52:28.622Z,50.04
2019-03-31T11:54:59.408Z,49.00
2019-03-31T11:57:30.126Z,49.34
2019-03-31T12:00:00.895Z,48.41
2019-03-31T12:02:31.644Z,48.57
2019-03-31T12:05:02.546Z,49.02
2019-03-31T12:07:46.035Z,47.53
2019-03-31T12:10:07.535Z,47.24
2019-03-31T12:12:38.369Z,46.78
2019-03-31T12:15:10.089Z,46.69
2019-03-31T12:17:40.855Z,46.60
2019-03-31T12:20:12.594Z,46.44
2019-03-31T12:22:43.432Z,45.63
2019-03-31T12:25:14.295Z,45.71
2019-03-31T12:27:45.756Z,46.02
2019-03-31T12:30:19.781Z,44.60
2019-03-31T12:32:50.640Z,45.13
2019-03-31T12:35:21.347Z,44.76
2019-03-31T12:37:52.272Z,45.22
2019-03-31T12:40:31.560Z,44.93
2019-03-31T12:43:02.017Z,44.83
2019-03-31T12:45:32.975Z,45.24
2019-03-31T12:48:03.770Z,46.28
2019-03-31T12:50:34.771Z,45.88
2019-03-31T12:53:05.260Z,45.92
2019-03-31T12:55:36.380Z,45.09
2019-03-31T12:58:07.218Z,44.52
2019-03-31T13:00:38.164Z,44.59
2019-03-31T13:03:09.010Z,45.73
2019-03-31T13:05:40.389Z,45.20
2019-03-31T13:08:11.189Z,44.90
2019-03-31T13:10:42.045Z,46.42
2019-03-31T13:13:12.938Z,44.37
2019-03-31T13:15:43.681Z,44.06
2019-03-31T13:18:14.688Z,45.06
2019-03-31T13:20:45.456Z,44.96
2019-03-31T13:23:16.364Z,44.72
2019-03-31T13:25:47.257Z,44.88
2019-03-31T13:28:18.105Z,44.87
2019-03-31T13:30:48.898Z,44.29
2019-03-31T13:33:21.190Z,43.67
2019-03-31T13:35:53.390Z,44.74
2019-03-31T13:38:24.397Z,43.46
2019-03-31T13:40:54.853Z,43.95
2019-03-31T13:43:26.854Z,44.20
2019-03-31T13:46:00.172Z,43.12
2019-03-31T13:48:30.083Z,43.35
2019-03-31T13:51:00.917Z,43.49
2019-03-31T13:53:31.835Z,42.83
2019-03-31T13:56:02.632Z,43.55
2019-03-31T13:58:34.094Z,43.03
2019-03-31T14:01:05.256Z,43.87
2019-03-31T14:03:36.212Z,43.68
2019-03-31T14:06:06.764Z,43.28
2019-03-31T14:08:37.517Z,43.41
2019-03-31T14:11:08.435Z,42.22
2019-03-31T14:13:39.402Z,42.33
2019-03-31T14:16:10.305Z,41.70
2019-03-31T14:18:41.153Z,41.55
2019-03-31T14:21:12.005Z,41.61
2019-03-31T14:23:43.943Z,42.14
2019-03-31T14:26:14.775Z,41.37
2019-03-31T14:28:45.531Z,41.25
2019-03-31T14:31:16.383Z,42.46
2019-03-31T14:33:48.073Z,42.02
2019-03-31T14:36:18.785Z,42.03
2019-03-31T14:38:49.608Z,42.16
2019-03-31T14:41:20.412Z,41.79
2019-03-31T14:43:50.882Z,41.56
2019-03-31T14:46:21.890Z,42.20
2019-03-31T14:49:11.371Z,42.23
2019-03-31T14:51:30.736Z,40.95
2019-03-31T14:54:01.672Z,42.76
2019-03-31T14:56:32.154Z,42.77
2019-03-31T14:59:02.934Z,42.00
2019-03-31T15:01:33.383Z,42.14
2019-03-31T15:04:04.207Z,41.30
2019-03-31T15:06:35.091Z,41.03
2019-03-31T15:09:08.253Z,40.96
2019-03-31T15:11:38.807Z,40.60
2019-03-31T15:14:09.592Z,41.18
2019-03-31T15:16:40.326Z,40.92
2019-03-31T15:19:10.791Z,40.77
2019-03-31T15:21:44.547Z,40.88
2019-03-31T15:24:13.663Z,41.28
2019-03-31T15:26:44.378Z,40.94
2019-03-31T15:29:15.285Z,41.14
2019-03-31T15:31:46.059Z,39.93
2019-03-31T15:34:20.539Z,39.69
2019-03-31T15:36:51.240Z,39.69
2019-03-31T15:39:23.635Z,38.04
2019-03-31T15:41:54.033Z,38.23
2019-03-31T15:44:24.416Z,38.03
2019-03-31T15:46:55.326Z,36.05
2019-03-31T15:49:25.826Z,36.30
2019-03-31T15:51:56.642Z,36.16
2019-03-31T15:54:27.189Z,37.04
2019-03-31T15:56:58.132Z,35.24
2019-03-31T15:59:28.966Z,34.24
2019-03-31T16:02:02.794Z,33.70
2019-03-31T16:04:33.612Z,34.15
2019-03-31T16:07:06.637Z,32.07
2019-03-31T16:09:37.297Z,34.08
2019-03-31T16:12:10.474Z,36.41
2019-03-31T16:14:58.800Z,37.20
2019-03-31T16:17:29.575Z,37.16
2019-03-31T16:20:02.846Z,38.57
2019-03-31T16:22:32.916Z,39.35
2019-03-31T16:25:09.272Z,40.31
2019-03-31T16:27:40.036Z,40.29
2019-03-31T16:30:14.318Z,41.11
2019-03-31T16:32:46.583Z,40.57
2019-03-31T16:35:17.489Z,39.95
2019-03-31T16:37:48.296Z,38.98
2019-03-31T16:40:19.134Z,39.15
2019-03-31T16:42:51.198Z,39.47
2019-03-31T16:45:22.730Z,39.55
2019-03-31T16:47:54.702Z,39.99
2019-03-31T16:50:25.517Z,40.12
2019-03-31T16:52:56.554Z,40.10
2019-03-31T16:55:27.290Z,40.16
2019-03-31T16:57:58.052Z,41.18
2019-03-31T17:00:28.894Z,40.85
2019-03-31T17:03:03.412Z,40.98
2019-03-31T17:05:36.198Z,41.24
2019-03-31T17:08:06.740Z,40.94
2019-03-31T17:10:37.564Z,40.17
2019-03-31T17:13:11.172Z,40.37
2019-03-31T17:15:41.900Z,39.87
2019-03-31T17:18:12.826Z,40.91
2019-03-31T17:20:45.196Z,39.52
2019-03-31T17:23:15.687Z,39.02
2019-03-31T17:25:46.490Z,38.82
2019-03-31T17:28:17.702Z,40.76
2019-03-31T17:30:48.546Z,40.10
2019-03-31T17:33:19.286Z,41.07
2019-03-31T17:35:50.111Z,41.71
2019-03-31T17:38:21.500Z,42.40
2019-03-31T17:40:52.316Z,43.30
2019-03-31T17:43:24.781Z,44.10
2019-03-31T17:45:55.712Z,44.43
2019-03-31T17:48:28.455Z,44.22
2019-03-31T17:54:01.269Z,43.46
2019-03-31T17:56:32.032Z,44.53
2019-03-31T17:59:02.863Z,43.83
2019-03-31T18:01:33.631Z,44.05
2019-03-31T18:04:04.344Z,43.48
2019-03-31T18:06:35.133Z,43.29
2019-03-31T18:09:09.786Z,43.52
2019-03-31T18:11:41.444Z,43.36
2019-03-31T18:14:12.286Z,43.15
2019-03-31T18:16:43.434Z,43.49
2019-03-31T18:19:14.273Z,43.59
2019-03-31T18:21:44.724Z,44.43
2019-03-31T18:24:15.532Z,43.64
2019-03-31T18:26:46.402Z,44.64
2019-03-31T18:29:17.249Z,44.10
2019-03-31T18:31:48.173Z,44.77
2019-03-31T18:34:18.894Z,44.49
2019-03-31T18:36:49.734Z,44.82
2019-03-31T18:39:22.082Z,45.08
2019-03-31T18:41:52.885Z,44.85
2019-03-31T18:44:25.429Z,45.69
2019-03-31T18:46:56.251Z,46.00
2019-03-31T18:49:27.088Z,46.06
2019-03-31T18:51:57.815Z,46.38
2019-03-31T18:54:47.627Z,45.79
2019-03-31T18:57:37.983Z,46.05
2019-03-31T19:00:15.694Z,46.31
2019-03-31T19:03:04.257Z,46.23
2019-03-31T19:05:52.120Z,46.16
2019-03-31T19:08:24.661Z,46.62
2019-03-31T19:10:57.707Z,47.14
2019-03-31T19:13:54.706Z,46.51
2019-03-31T19:16:17.196Z,46.96
2019-03-31T19:19:03.278Z,47.13
2019-03-31T19:21:38.530Z,46.81
2019-03-31T19:24:14.830Z,46.86
2019-03-31T19:26:50.499Z,47.05
2019-03-31T19:29:28.812Z,47.59
2019-03-31T19:32:04.154Z,47.54
2019-03-31T19:34:51.269Z,48.20
2019-03-31T19:37:35.308Z,48.12
2019-03-31T19:40:25.411Z,47.06
2019-03-31T19:43:15.849Z,48.12
2019-03-31T19:45:57.284Z,47.86
2019-03-31T19:48:35.161Z,48.61
2019-03-31T19:51:07.695Z,48.69
2019-03-31T19:53:43.214Z,48.01
2019-03-31T19:56:23.672Z,47.92
2019-03-31T19:59:08.558Z,48.70
2019-03-31T20:01:54.425Z,48.87
2019-03-31T20:04:49.495Z,49.28
2019-03-31T20:07:25.761Z,48.94
2019-03-31T20:10:19.025Z,49.24
2019-03-31T20:13:00.349Z,48.62
2019-03-31T20:15:33.241Z,49.22
2019-03-31T20:18:08.101Z,49.14
2019-03-31T20:20:40.842Z,48.85
2019-03-31T20:23:28.173Z,48.90
2019-03-31T20:26:16.801Z,49.31
2019-03-31T20:28:58.006Z,49.43
2019-03-31T20:31:45.415Z,49.18
2019-03-31T20:34:23.817Z,49.42
2019-03-31T20:37:02.333Z,49.80
2019-03-31T20:39:56.939Z,49.17
2019-03-31T20:42:33.803Z,49.37
2019-03-31T20:45:07.713Z,49.69
2019-03-31T20:47:38.651Z,49.36
2019-03-31T20:50:09.723Z,49.46
2019-03-31T20:52:40.319Z,49.52
2019-03-31T20:55:16.503Z,49.59
2019-03-31T20:57:43.822Z,49.48
2019-03-31T21:00:14.974Z,49.75
2019-03-31T21:02:45.939Z,49.34
2019-03-31T21:05:16.831Z,49.23
2019-03-31T21:07:47.627Z,49.74
2019-03-31T21:10:18.697Z,49.53
2019-03-31T21:12:49.619Z,49.34
2019-03-31T21:15:20.761Z,50.09
2019-03-31T21:17:51.741Z,49.97
2019-03-31T21:20:22.656Z,49.90
2019-03-31T21:22:53.452Z,49.93
2019-03-31T21:25:24.430Z,50.11
2019-03-31T21:27:55.268Z,50.26
2019-03-31T21:30:26.088Z,49.67
2019-03-31T21:32:56.772Z,49.94
2019-03-31T21:35:27.755Z,49.29
2019-03-31T21:37:58.584Z,50.19
2019-03-31T21:40:29.571Z,49.76
2019-03-31T21:43:01.389Z,49.47
2019-03-31T21:45:34.091Z,49.15
2019-03-31T21:48:05.575Z,50.06
2019-03-31T21:50:36.535Z,49.68
2019-03-31T21:53:07.388Z,49.66
2019-03-31T21:55:38.286Z,49.88
2019-03-31T21:58:09.172Z,49.85
2019-03-31T22:00:51.511Z,50.17
2019-03-31T22:03:22.363Z,50.25
2019-03-31T22:05:52.887Z,50.34
2019-03-31T22:08:23.750Z,50.07
2019-03-31T22:10:54.157Z,50.25
2019-03-31T22:13:24.915Z,50.16
2019-03-31T22:15:55.627Z,50.92
2019-03-31T22:18:26.385Z,50.65
2019-03-31T22:20:57.374Z,50.87
2019-03-31T22:23:28.263Z,50.26
2019-03-31T22:25:59.027Z,50.77
2019-03-31T22:28:29.822Z,50.71
2019-03-31T22:31:00.603Z,50.91
2019-03-31T22:33:31.363Z,50.73
2019-03-31T22:36:21.492Z,50.79
2019-03-31T22:38:53.601Z,50.88
2019-03-31T22:41:24.484Z,51.02
2019-03-31T22:43:55.351Z,51.72
2019-03-31T22:46:25.835Z,51.56
2019-03-31T22:48:56.619Z,51.89
2019-03-31T22:51:27.445Z,51.55
2019-03-31T22:53:58.275Z,51.55
2019-03-31T22:56:29.184Z,51.91
2019-03-31T22:59:00.057Z,51.92
2019-03-31T23:01:30.897Z,52.39
2019-03-31T23:04:01.899Z,52.18
2019-03-31T23:06:32.875Z,52.15
2019-03-31T23:09:05.552Z,52.23
2019-03-31T23:11:35.996Z,52.57
2019-03-31T23:14:07.022Z,52.80
2019-03-31T23:16:37.891Z,52.63
2019-03-31T23:19:08.735Z,52.35
2019-03-31T23:21:41.052Z,52.92
2019-03-31T23:24:12.017Z,53.16
2019-03-31T23:26:42.839Z,53.04
2019-03-31T23:29:13.675Z,53.09
2019-03-31T23:31:44.427Z,53.17
2019-03-31T23:34:15.257Z,53.25
2019-03-31T23:36:46.121Z,53.57
2019-03-31T23:39:16.582Z,53.50
2019-03-31T23:41:47.563Z,53.74
2019-03-31T23:44:18.112Z,54.08
2019-03-31T23:46:48.940Z,54.10
2019-03-31T23:49:19.519Z,54.23
2019-03-31T23:51:49.886Z,53.96
2019-03-31T23:54:20.612Z,54.34
2019-03-31T23:56:51.514Z,54.65
2019-03-31T23:59:22.331Z,54.71
